sensor_id;sensor_type;location;lat;lon;timestamp;pressure;altitude;pressure_sealevel;temperature
12430;BMP280;6279;42.192;24.326;2023-09-19T00:00:42;99479.69;;;16.36
12430;BMP280;6279;42.192;24.326;2023-09-19T00:03:08;99475.44;;;16.35
12430;BMP280;6279;42.192;24.326;2023-09-19T00:05:34;99473.03;;;16.40
12430;BMP280;6279;42.192;24.326;2023-09-19T00:08:01;99467.78;;;16.40
12430;BMP280;6279;42.192;24.326;2023-09-19T00:10:30;99471.44;;;16.39
12430;BMP280;6279;42.192;24.326;2023-09-19T00:12:59;99466.75;;;16.35
12430;BMP280;6279;42.192;24.326;2023-09-19T00:15:27;99473.44;;;16.37
12430;BMP280;6279;42.192;24.326;2023-09-19T00:17:55;99475.06;;;16.38
12430;BMP280;6279;42.192;24.326;2023-09-19T00:20:21;99471.81;;;16.36
12430;BMP280;6279;42.192;24.326;2023-09-19T00:22:49;99459.50;;;16.37
12430;BMP280;6279;42.192;24.326;2023-09-19T00:25:19;99458.88;;;16.35
12430;BMP280;6279;42.192;24.326;2023-09-19T00:27:45;99460.47;;;16.29
12430;BMP280;6279;42.192;24.326;2023-09-19T00:30:13;99465.28;;;16.26
12430;BMP280;6279;42.192;24.326;2023-09-19T00:32:45;99457.16;;;16.21
12430;BMP280;6279;42.192;24.326;2023-09-19T00:35:13;99464.00;;;16.16
12430;BMP280;6279;42.192;24.326;2023-09-19T00:37:39;99458.19;;;16.00
12430;BMP280;6279;42.192;24.326;2023-09-19T00:40:06;99461.50;;;15.87
12430;BMP280;6279;42.192;24.326;2023-09-19T00:42:32;99464.31;;;15.86
12430;BMP280;6279;42.192;24.326;2023-09-19T00:44:59;99457.13;;;15.94
12430;BMP280;6279;42.192;24.326;2023-09-19T00:47:24;99457.56;;;15.98
12430;BMP280;6279;42.192;24.326;2023-09-19T00:49:50;99458.00;;;16.01
12430;BMP280;6279;42.192;24.326;2023-09-19T00:52:17;99444.44;;;15.98
12430;BMP280;6279;42.192;24.326;2023-09-19T00:54:46;99456.13;;;15.95
12430;BMP280;6279;42.192;24.326;2023-09-19T00:57:12;99455.06;;;15.90
12430;BMP280;6279;42.192;24.326;2023-09-19T00:59:40;99457.56;;;15.98
12430;BMP280;6279;42.192;24.326;2023-09-19T01:02:06;99455.13;;;15.96
12430;BMP280;6279;42.192;24.326;2023-09-19T01:04:31;99451.31;;;15.99
12430;BMP280;6279;42.192;24.326;2023-09-19T01:06:57;99455.06;;;15.90
12430;BMP280;6279;42.192;24.326;2023-09-19T01:09:23;99456.06;;;15.89
12430;BMP280;6279;42.192;24.326;2023-09-19T01:11:50;99447.16;;;15.83
12430;BMP280;6279;42.192;24.326;2023-09-19T01:30:52;99441.22;;;15.55
12430;BMP280;6279;42.192;24.326;2023-09-19T01:33:19;99441.75;;;15.44
12430;BMP280;6279;42.192;24.326;2023-09-19T01:35:45;99449.31;;;15.18
12430;BMP280;6279;42.192;24.326;2023-09-19T01:38:10;99453.19;;;15.02
12430;BMP280;6279;42.192;24.326;2023-09-19T01:40:41;99449.63;;;15.09
12430;BMP280;6279;42.192;24.326;2023-09-19T01:48:40;99446.13;;;15.02
12430;BMP280;6279;42.192;24.326;2023-09-19T01:51:09;99439.78;;;15.11
12430;BMP280;6279;42.192;24.326;2023-09-19T01:53:51;99441.63;;;15.17
12430;BMP280;6279;42.192;24.326;2023-09-19T01:56:28;99441.13;;;15.07
12430;BMP280;6279;42.192;24.326;2023-09-19T01:59:03;99435.81;;;15.01
12430;BMP280;6279;42.192;24.326;2023-09-19T02:01:31;99436.09;;;14.91
12430;BMP280;6279;42.192;24.326;2023-09-19T02:03:58;99437.72;;;14.92
12430;BMP280;6279;42.192;24.326;2023-09-19T02:06:23;99444.56;;;14.93
12430;BMP280;6279;42.192;24.326;2023-09-19T02:08:50;99431.47;;;14.93
12430;BMP280;6279;42.192;24.326;2023-09-19T02:11:15;99431.38;;;15.01
12430;BMP280;6279;42.192;24.326;2023-09-19T02:13:41;99437.53;;;15.08
12430;BMP280;6279;42.192;24.326;2023-09-19T02:16:07;99435.53;;;15.10
12430;BMP280;6279;42.192;24.326;2023-09-19T02:18:34;99437.53;;;15.08
12430;BMP280;6279;42.192;24.326;2023-09-19T02:21:01;99426.91;;;15.16
12430;BMP280;6279;42.192;24.326;2023-09-19T02:23:26;99443.63;;;15.15
12430;BMP280;6279;42.192;24.326;2023-09-19T02:25:53;99443.38;;;15.10
12430;BMP280;6279;42.192;24.326;2023-09-19T02:28:18;99434.91;;;15.08
12430;BMP280;6279;42.192;24.326;2023-09-19T02:30:47;99436.53;;;15.09
12430;BMP280;6279;42.192;24.326;2023-09-19T02:33:13;99437.09;;;15.05
12430;BMP280;6279;42.192;24.326;2023-09-19T02:35:39;99433.03;;;15.02
12430;BMP280;6279;42.192;24.326;2023-09-19T02:38:04;99440.88;;;15.02
12430;BMP280;6279;42.192;24.326;2023-09-19T02:40:31;99428.13;;;14.99
12430;BMP280;6279;42.192;24.326;2023-09-19T02:43:01;99431.91;;;14.97
12430;BMP280;6279;42.192;24.326;2023-09-19T02:45:27;99425.31;;;15.01
12430;BMP280;6279;42.192;24.326;2023-09-19T02:47:53;99427.13;;;15.00
12430;BMP280;6279;42.192;24.326;2023-09-19T02:50:18;99436.97;;;14.98
12430;BMP280;6279;42.192;24.326;2023-09-19T02:52:45;99429.97;;;14.85
12430;BMP280;6279;42.192;24.326;2023-09-19T02:55:14;99427.22;;;14.92
12430;BMP280;6279;42.192;24.326;2023-09-19T02:57:47;99430.22;;;14.90
12430;BMP280;6279;42.192;24.326;2023-09-19T03:00:13;99431.84;;;14.91
12430;BMP280;6279;42.192;24.326;2023-09-19T03:02:38;99429.78;;;14.86
12430;BMP280;6279;42.192;24.326;2023-09-19T03:05:07;99430.84;;;14.91
12430;BMP280;6279;42.192;24.326;2023-09-19T03:07:32;99421.56;;;14.89
12430;BMP280;6279;42.192;24.326;2023-09-19T03:09:59;99430.84;;;14.91
12430;BMP280;6279;42.192;24.326;2023-09-19T03:12:28;99426.03;;;14.95
12430;BMP280;6279;42.192;24.326;2023-09-19T03:14:53;99426.34;;;14.86
12430;BMP280;6279;42.192;24.326;2023-09-19T03:17:19;99421.91;;;14.86
12430;BMP280;6279;42.192;24.326;2023-09-19T03:19:45;99421.13;;;14.86
12430;BMP280;6279;42.192;24.326;2023-09-19T03:22:12;99415.59;;;14.81
12430;BMP280;6279;42.192;24.326;2023-09-19T03:24:38;99424.19;;;14.75
12430;BMP280;6279;42.192;24.326;2023-09-19T03:27:03;99422.94;;;14.71
12430;BMP280;6279;42.192;24.326;2023-09-19T03:29:29;99420.22;;;14.65
12430;BMP280;6279;42.192;24.326;2023-09-19T03:31:55;99422.69;;;14.66
12430;BMP280;6279;42.192;24.326;2023-09-19T03:34:20;99418.31;;;14.73
12430;BMP280;6279;42.192;24.326;2023-09-19T03:36:46;99429.34;;;14.69
12430;BMP280;6279;42.192;24.326;2023-09-19T03:39:11;99426.38;;;14.57
12430;BMP280;6279;42.192;24.326;2023-09-19T03:41:37;99425.50;;;14.50
12430;BMP280;6279;42.192;24.326;2023-09-19T03:44:03;99420.78;;;14.46
12430;BMP280;6279;42.192;24.326;2023-09-19T03:46:28;99423.06;;;14.35
12430;BMP280;6279;42.192;24.326;2023-09-19T03:48:55;99429.44;;;14.47
12430;BMP280;6279;42.192;24.326;2023-09-19T03:51:20;99440.91;;;14.46
12430;BMP280;6279;42.192;24.326;2023-09-19T03:53:46;99433.06;;;14.46
12430;BMP280;6279;42.192;24.326;2023-09-19T03:56:14;99440.91;;;14.46
12430;BMP280;6279;42.192;24.326;2023-09-19T03:58:40;99450.38;;;14.47
12430;BMP280;6279;42.192;24.326;2023-09-19T04:01:06;99446.75;;;14.47
12430;BMP280;6279;42.192;24.326;2023-09-19T04:03:34;99446.44;;;14.50
12430;BMP280;6279;42.192;24.326;2023-09-19T04:06:13;99449.94;;;14.57
12430;BMP280;6279;42.192;24.326;2023-09-19T04:08:39;99442.53;;;14.61
12430;BMP280;6279;42.192;24.326;2023-09-19T04:11:04;99445.59;;;14.64
12430;BMP280;6279;42.192;24.326;2023-09-19T04:13:29;99436.91;;;14.64
12430;BMP280;6279;42.192;24.326;2023-09-19T04:15:55;99450.66;;;14.51
12430;BMP280;6279;42.192;24.326;2023-09-19T04:18:20;99447.41;;;14.64
12430;BMP280;6279;42.192;24.326;2023-09-19T04:20:51;99442.63;;;14.67
12430;BMP280;6279;42.192;24.326;2023-09-19T04:23:17;99445.94;;;14.61
12430;BMP280;6279;42.192;24.326;2023-09-19T04:25:45;99441.72;;;14.60
12430;BMP280;6279;42.192;24.326;2023-09-19T04:28:10;99453.81;;;14.61
12430;BMP280;6279;42.192;24.326;2023-09-19T04:30:37;99456.06;;;14.64
12430;BMP280;6279;42.192;24.326;2023-09-19T04:33:03;99452.72;;;14.70
12430;BMP280;6279;42.192;24.326;2023-09-19T04:35:28;99440.34;;;14.78
12430;BMP280;6279;42.192;24.326;2023-09-19T04:37:56;99434.09;;;14.79
12430;BMP280;6279;42.192;24.326;2023-09-19T04:40:22;99442.50;;;14.89
12430;BMP280;6279;42.192;24.326;2023-09-19T04:42:56;99435.28;;;14.91
12430;BMP280;6279;42.192;24.326;2023-09-19T04:45:22;99440.31;;;14.92
12430;BMP280;6279;42.192;24.326;2023-09-19T04:47:48;99435.00;;;15.00
12430;BMP280;6279;42.192;24.326;2023-09-19T04:50:13;99433.34;;;15.13
12430;BMP280;6279;42.192;24.326;2023-09-19T04:52:44;99432.06;;;15.24
12430;BMP280;6279;42.192;24.326;2023-09-19T04:55:14;99433.97;;;15.36
12430;BMP280;6279;42.192;24.326;2023-09-19T04:57:47;99434.31;;;15.47
12430;BMP280;6279;42.192;24.326;2023-09-19T05:00:14;99432.81;;;15.59
12430;BMP280;6279;42.192;24.326;2023-09-19T05:02:40;99437.81;;;15.75
12430;BMP280;6279;42.192;24.326;2023-09-19T05:05:10;99435.41;;;15.79
12430;BMP280;6279;42.192;24.326;2023-09-19T05:07:40;99433.16;;;15.97
12430;BMP280;6279;42.192;24.326;2023-09-19T05:10:06;99431.94;;;16.00
12430;BMP280;6279;42.192;24.326;2023-09-19T05:12:33;99431.28;;;16.12
12430;BMP280;6279;42.192;24.326;2023-09-19T05:14:59;99438.66;;;16.29
12430;BMP280;6279;42.192;24.326;2023-09-19T05:17:26;99439.47;;;16.29
12430;BMP280;6279;42.192;24.326;2023-09-19T05:19:52;99441.53;;;16.40
12430;BMP280;6279;42.192;24.326;2023-09-19T05:22:18;99436.47;;;16.66
12430;BMP280;6279;42.192;24.326;2023-09-19T05:24:44;99440.91;;;16.71
12430;BMP280;6279;42.192;24.326;2023-09-19T05:27:12;99438.88;;;17.13
12430;BMP280;6279;42.192;24.326;2023-09-19T05:29:37;99431.50;;;17.42
12430;BMP280;6279;42.192;24.326;2023-09-19T05:32:03;99431.13;;;17.64
12430;BMP280;6279;42.192;24.326;2023-09-19T05:34:29;99428.94;;;17.93
12430;BMP280;6279;42.192;24.326;2023-09-19T05:36:55;99430.56;;;18.25
12430;BMP280;6279;42.192;24.326;2023-09-19T05:39:21;99420.13;;;18.56
12430;BMP280;6279;42.192;24.326;2023-09-19T05:41:46;99420.91;;;18.82
12430;BMP280;6279;42.192;24.326;2023-09-19T05:44:13;99412.66;;;19.15
12430;BMP280;6279;42.192;24.326;2023-09-19T05:46:39;99414.09;;;19.41
12430;BMP280;6279;42.192;24.326;2023-09-19T05:49:05;99416.13;;;19.76
12430;BMP280;6279;42.192;24.326;2023-09-19T05:51:30;99416.47;;;20.27
12430;BMP280;6279;42.192;24.326;2023-09-19T05:53:56;99412.19;;;20.86
12430;BMP280;6279;42.192;24.326;2023-09-19T05:56:21;99402.75;;;21.53
12430;BMP280;6279;42.192;24.326;2023-09-19T05:58:47;99397.91;;;22.13
12430;BMP280;6279;42.192;24.326;2023-09-19T06:01:13;99398.81;;;22.75
12430;BMP280;6279;42.192;24.326;2023-09-19T06:03:38;99394.25;;;23.52
12430;BMP280;6279;42.192;24.326;2023-09-19T06:06:04;99395.91;;;24.34
12430;BMP280;6279;42.192;24.326;2023-09-19T06:08:31;99399.81;;;24.85
12430;BMP280;6279;42.192;24.326;2023-09-19T06:10:57;99400.06;;;25.05
12430;BMP280;6279;42.192;24.326;2023-09-19T06:13:22;99406.31;;;24.94
12430;BMP280;6279;42.192;24.326;2023-09-19T06:15:50;99403.59;;;24.89
12430;BMP280;6279;42.192;24.326;2023-09-19T06:18:16;99401.91;;;25.25
12430;BMP280;6279;42.192;24.326;2023-09-19T06:20:48;99396.28;;;25.73
12430;BMP280;6279;42.192;24.326;2023-09-19T06:23:14;99403.41;;;25.94
12430;BMP280;6279;42.192;24.326;2023-09-19T06:25:40;99397.28;;;25.94
12430;BMP280;6279;42.192;24.326;2023-09-19T06:28:06;99396.28;;;25.99
12430;BMP280;6279;42.192;24.326;2023-09-19T06:30:33;99387.72;;;26.33
12430;BMP280;6279;42.192;24.326;2023-09-19T06:33:00;99388.13;;;26.56
12430;BMP280;6279;42.192;24.326;2023-09-19T06:35:31;99388.84;;;26.83
12430;BMP280;6279;42.192;24.326;2023-09-19T06:37:58;99391.28;;;26.99
12430;BMP280;6279;42.192;24.326;2023-09-19T06:40:23;99386.88;;;27.33
12430;BMP280;6279;42.192;24.326;2023-09-19T06:42:53;99381.28;;;27.50
12430;BMP280;6279;42.192;24.326;2023-09-19T06:45:19;99389.66;;;27.97
12430;BMP280;6279;42.192;24.326;2023-09-19T06:47:50;99387.75;;;27.73
12430;BMP280;6279;42.192;24.326;2023-09-19T06:50:25;99378.16;;;27.96
12430;BMP280;6279;42.192;24.326;2023-09-19T06:52:52;99386.66;;;28.42
12430;BMP280;6279;42.192;24.326;2023-09-19T06:55:20;99383.41;;;28.70
12430;BMP280;6279;42.192;24.326;2023-09-19T06:57:46;99389.22;;;28.91
12430;BMP280;6279;42.192;24.326;2023-09-19T07:00:13;99380.69;;;28.80
12430;BMP280;6279;42.192;24.326;2023-09-19T07:03:04;99383.59;;;28.98
12430;BMP280;6279;42.192;24.326;2023-09-19T07:05:34;99378.03;;;29.37
12430;BMP280;6279;42.192;24.326;2023-09-19T07:08:03;99375.97;;;29.99
12430;BMP280;6279;42.192;24.326;2023-09-19T07:10:29;99385.41;;;30.99
12430;BMP280;6279;42.192;24.326;2023-09-19T07:13:02;99383.81;;;30.98
12430;BMP280;6279;42.192;24.326;2023-09-19T07:15:29;99381.25;;;29.29
12430;BMP280;6279;42.192;24.326;2023-09-19T07:17:56;99390.94;;;27.65
12430;BMP280;6279;42.192;24.326;2023-09-19T07:20:23;99383.50;;;26.83
12430;BMP280;6279;42.192;24.326;2023-09-19T07:22:51;99374.03;;;27.30
12430;BMP280;6279;42.192;24.326;2023-09-19T07:25:17;99373.50;;;28.65
12430;BMP280;6279;42.192;24.326;2023-09-19T07:27:43;99372.88;;;29.83
12430;BMP280;6279;42.192;24.326;2023-09-19T07:30:09;99368.75;;;30.79
12430;BMP280;6279;42.192;24.326;2023-09-19T07:32:35;99369.28;;;31.22
12430;BMP280;6279;42.192;24.326;2023-09-19T07:35:05;99366.06;;;31.92
12430;BMP280;6279;42.192;24.326;2023-09-19T07:37:34;99365.81;;;32.38
12430;BMP280;6279;42.192;24.326;2023-09-19T07:40:03;99365.00;;;32.38
12430;BMP280;6279;42.192;24.326;2023-09-19T07:42:36;99357.16;;;32.94
12430;BMP280;6279;42.192;24.326;2023-09-19T07:45:06;99356.44;;;33.28
12430;BMP280;6279;42.192;24.326;2023-09-19T07:47:33;99363.84;;;32.96
12430;BMP280;6279;42.192;24.326;2023-09-19T07:49:59;99351.84;;;32.89
12430;BMP280;6279;42.192;24.326;2023-09-19T07:52:27;99349.06;;;32.94
12430;BMP280;6279;42.192;24.326;2023-09-19T07:54:53;99346.88;;;32.96
12430;BMP280;6279;42.192;24.326;2023-09-19T07:57:18;99352.72;;;32.32
12430;BMP280;6279;42.192;24.326;2023-09-19T07:59:45;99345.53;;;31.96
12430;BMP280;6279;42.192;24.326;2023-09-19T08:02:11;99338.81;;;31.44
12430;BMP280;6279;42.192;24.326;2023-09-19T08:04:44;99335.22;;;32.16
12430;BMP280;6279;42.192;24.326;2023-09-19T08:07:11;99332.28;;;33.79
12430;BMP280;6279;42.192;24.326;2023-09-19T08:09:37;99330.56;;;33.62
12430;BMP280;6279;42.192;24.326;2023-09-19T08:12:04;99338.38;;;34.44
12430;BMP280;6279;42.192;24.326;2023-09-19T08:14:29;99322.97;;;36.41
12430;BMP280;6279;42.192;24.326;2023-09-19T08:16:58;99325.72;;;36.98
12430;BMP280;6279;42.192;24.326;2023-09-19T08:19:24;99322.88;;;38.38
12430;BMP280;6279;42.192;24.326;2023-09-19T08:21:56;99322.34;;;37.29
12430;BMP280;6279;42.192;24.326;2023-09-19T08:24:25;99317.13;;;36.96
12430;BMP280;6279;42.192;24.326;2023-09-19T08:26:54;99317.84;;;38.60
12430;BMP280;6279;42.192;24.326;2023-09-19T08:29:20;99306.94;;;39.84
12430;BMP280;6279;42.192;24.326;2023-09-19T08:31:45;99318.28;;;39.86
12430;BMP280;6279;42.192;24.326;2023-09-19T08:34:14;99306.06;;;39.53
12430;BMP280;6279;42.192;24.326;2023-09-19T08:36:40;99308.97;;;39.10
12430;BMP280;6279;42.192;24.326;2023-09-19T08:39:06;99306.34;;;39.64
12430;BMP280;6279;42.192;24.326;2023-09-19T08:41:33;99301.25;;;37.86
12430;BMP280;6279;42.192;24.326;2023-09-19T08:43:59;99306.50;;;37.11
12430;BMP280;6279;42.192;24.326;2023-09-19T08:46:29;99305.38;;;37.32
12430;BMP280;6279;42.192;24.326;2023-09-19T08:49:03;99294.34;;;38.32
12430;BMP280;6279;42.192;24.326;2023-09-19T08:51:31;99292.00;;;38.42
12430;BMP280;6279;42.192;24.326;2023-09-19T08:54:06;99287.69;;;36.86
12430;BMP280;6279;42.192;24.326;2023-09-19T08:56:32;99296.78;;;36.00
12430;BMP280;6279;42.192;24.326;2023-09-19T08:59:07;99282.34;;;35.29
12430;BMP280;6279;42.192;24.326;2023-09-19T09:01:37;99287.94;;;32.55
12430;BMP280;6279;42.192;24.326;2023-09-19T09:04:08;99287.94;;;30.06
12430;BMP280;6279;42.192;24.326;2023-09-19T09:06:34;99266.59;;;31.02
12430;BMP280;6279;42.192;24.326;2023-09-19T09:09:02;99265.75;;;32.31
12430;BMP280;6279;42.192;24.326;2023-09-19T09:11:28;99264.56;;;31.48
12430;BMP280;6279;42.192;24.326;2023-09-19T09:13:54;99276.41;;;29.40
12430;BMP280;6279;42.192;24.326;2023-09-19T09:16:19;99266.78;;;29.72
12430;BMP280;6279;42.192;24.326;2023-09-19T09:18:45;99265.56;;;29.60
12430;BMP280;6279;42.192;24.326;2023-09-19T09:21:12;99264.53;;;30.35
12430;BMP280;6279;42.192;24.326;2023-09-19T09:23:40;99258.03;;;30.40
12430;BMP280;6279;42.192;24.326;2023-09-19T09:26:06;99257.06;;;30.73
12430;BMP280;6279;42.192;24.326;2023-09-19T09:28:33;99250.41;;;30.70
12430;BMP280;6279;42.192;24.326;2023-09-19T09:31:01;99248.38;;;30.99
12430;BMP280;6279;42.192;24.326;2023-09-19T09:33:35;99240.72;;;32.17
12430;BMP280;6279;42.192;24.326;2023-09-19T09:36:02;99250.94;;;31.89
12430;BMP280;6279;42.192;24.326;2023-09-19T09:38:47;99244.41;;;31.14
12430;BMP280;6279;42.192;24.326;2023-09-19T09:41:36;99245.69;;;30.81
12430;BMP280;6279;42.192;24.326;2023-09-19T09:44:15;99240.13;;;30.95
12430;BMP280;6279;42.192;24.326;2023-09-19T09:46:44;99232.50;;;30.20
12430;BMP280;6279;42.192;24.326;2023-09-19T09:49:23;99234.63;;;30.23
12430;BMP280;6279;42.192;24.326;2023-09-19T09:52:05;99229.91;;;30.33
12430;BMP280;6279;42.192;24.326;2023-09-19T09:54:33;99232.91;;;29.81
12430;BMP280;6279;42.192;24.326;2023-09-19T09:57:09;99230.63;;;29.93
12430;BMP280;6279;42.192;24.326;2023-09-19T09:59:58;99237.59;;;29.66
12430;BMP280;6279;42.192;24.326;2023-09-19T10:02:35;99225.59;;;30.60
12430;BMP280;6279;42.192;24.326;2023-09-19T10:05:20;99223.91;;;31.36
12430;BMP280;6279;42.192;24.326;2023-09-19T10:07:50;99223.75;;;32.04
12430;BMP280;6279;42.192;24.326;2023-09-19T10:10:37;99219.44;;;32.82
12430;BMP280;6279;42.192;24.326;2023-09-19T10:13:10;99214.66;;;32.79
12430;BMP280;6279;42.192;24.326;2023-09-19T10:15:42;99208.72;;;32.56
12430;BMP280;6279;42.192;24.326;2023-09-19T10:18:11;99222.28;;;31.35
12430;BMP280;6279;42.192;24.326;2023-09-19T10:20:43;99208.94;;;32.19
12430;BMP280;6279;42.192;24.326;2023-09-19T10:23:11;99195.84;;;33.22
12430;BMP280;6279;42.192;24.326;2023-09-19T10:25:41;99193.88;;;33.87
12430;BMP280;6279;42.192;24.326;2023-09-19T10:28:09;99199.13;;;33.92
12430;BMP280;6279;42.192;24.326;2023-09-19T10:30:44;99191.63;;;33.51
12430;BMP280;6279;42.192;24.326;2023-09-19T10:33:14;99184.19;;;32.92
12430;BMP280;6279;42.192;24.326;2023-09-19T10:35:43;99170.03;;;31.73
12430;BMP280;6279;42.192;24.326;2023-09-19T10:38:11;99176.88;;;31.78
12430;BMP280;6279;42.192;24.326;2023-09-19T10:40:38;99171.03;;;31.32
12430;BMP280;6279;42.192;24.326;2023-09-19T10:43:12;99170.97;;;30.46
12430;BMP280;6279;42.192;24.326;2023-09-19T10:45:38;99173.25;;;29.66
12430;BMP280;6279;42.192;24.326;2023-09-19T10:48:05;99172.97;;;29.67
12430;BMP280;6279;42.192;24.326;2023-09-19T10:50:45;99169.38;;;30.04
12430;BMP280;6279;42.192;24.326;2023-09-19T10:53:13;99156.16;;;30.31
12430;BMP280;6279;42.192;24.326;2023-09-19T10:55:39;99157.03;;;30.03
12430;BMP280;6279;42.192;24.326;2023-09-19T10:58:08;99162.69;;;30.25
12430;BMP280;6279;42.192;24.326;2023-09-19T11:00:59;99158.31;;;29.83
12430;BMP280;6279;42.192;24.326;2023-09-19T11:03:43;99155.72;;;29.50
12430;BMP280;6279;42.192;24.326;2023-09-19T11:06:16;99154.41;;;28.82
12430;BMP280;6279;42.192;24.326;2023-09-19T11:09:01;99143.97;;;29.18
12430;BMP280;6279;42.192;24.326;2023-09-19T11:11:56;99132.94;;;30.39
12430;BMP280;6279;42.192;24.326;2023-09-19T11:17:35;99128.34;;;30.04
12430;BMP280;6279;42.192;24.326;2023-09-19T11:30:49;99123.13;;;29.89
12430;BMP280;6279;42.192;24.326;2023-09-19T11:43:53;99093.88;;;29.70
12430;BMP280;6279;42.192;24.326;2023-09-19T11:46:24;99092.31;;;29.87
12430;BMP280;6279;42.192;24.326;2023-09-19T11:48:53;99085.44;;;29.58
12430;BMP280;6279;42.192;24.326;2023-09-19T11:51:25;99080.00;;;29.63
12430;BMP280;6279;42.192;24.326;2023-09-19T11:53:55;99074.81;;;29.71
12430;BMP280;6279;42.192;24.326;2023-09-19T11:56:22;99088.75;;;30.14
12430;BMP280;6279;42.192;24.326;2023-09-19T11:58:54;99077.22;;;29.73
12430;BMP280;6279;42.192;24.326;2023-09-19T12:03:53;99084.38;;;29.77
12430;BMP280;6279;42.192;24.326;2023-09-19T12:06:19;99071.81;;;29.95
12430;BMP280;6279;42.192;24.326;2023-09-19T12:08:47;99068.09;;;30.33
12430;BMP280;6279;42.192;24.326;2023-09-19T12:11:14;99074.13;;;30.61
12430;BMP280;6279;42.192;24.326;2023-09-19T12:13:42;99068.09;;;31.00
12430;BMP280;6279;42.192;24.326;2023-09-19T12:16:19;99054.13;;;31.16
12430;BMP280;6279;42.192;24.326;2023-09-19T12:18:49;99061.38;;;31.16
12430;BMP280;6279;42.192;24.326;2023-09-19T12:24:07;99056.13;;;31.37
12430;BMP280;6279;42.192;24.326;2023-09-19T12:26:45;99050.75;;;31.37
12430;BMP280;6279;42.192;24.326;2023-09-19T12:29:17;99047.63;;;31.04
12430;BMP280;6279;42.192;24.326;2023-09-19T12:31:56;99055.09;;;30.76
12430;BMP280;6279;42.192;24.326;2023-09-19T12:34:32;99046.03;;;30.36
12430;BMP280;6279;42.192;24.326;2023-09-19T12:37:13;99043.47;;;29.90
12430;BMP280;6279;42.192;24.326;2023-09-19T12:39:51;99038.34;;;29.24
12430;BMP280;6279;42.192;24.326;2023-09-19T12:42:24;99034.19;;;29.36
12430;BMP280;6279;42.192;24.326;2023-09-19T12:44:53;99041.06;;;29.47
12430;BMP280;6279;42.192;24.326;2023-09-19T12:47:23;99028.25;;;29.39
12430;BMP280;6279;42.192;24.326;2023-09-19T12:50:12;99028.16;;;29.49
12430;BMP280;6279;42.192;24.326;2023-09-19T12:52:51;99024.28;;;29.37
12430;BMP280;6279;42.192;24.326;2023-09-19T12:55:29;99020.72;;;29.64
12430;BMP280;6279;42.192;24.326;2023-09-19T12:58:09;99011.78;;;29.73
12430;BMP280;6279;42.192;24.326;2023-09-19T13:00:38;99003.47;;;29.52
12430;BMP280;6279;42.192;24.326;2023-09-19T13:05:51;99007.34;;;30.05
12430;BMP280;6279;42.192;24.326;2023-09-19T13:08:18;99010.13;;;29.95
12430;BMP280;6279;42.192;24.326;2023-09-19T13:13:39;99003.84;;;30.23
12430;BMP280;6279;42.192;24.326;2023-09-19T13:16:06;98995.09;;;30.49
12430;BMP280;6279;42.192;24.326;2023-09-19T13:18:43;98988.75;;;30.89
12430;BMP280;6279;42.192;24.326;2023-09-19T13:21:11;98995.97;;;31.07
12430;BMP280;6279;42.192;24.326;2023-09-19T13:23:42;98978.09;;;30.84
12430;BMP280;6279;42.192;24.326;2023-09-19T13:26:08;98984.50;;;29.85
12430;BMP280;6279;42.192;24.326;2023-09-19T13:28:34;98982.38;;;29.46
12430;BMP280;6279;42.192;24.326;2023-09-19T13:30:59;98984.84;;;28.91
12430;BMP280;6279;42.192;24.326;2023-09-19T13:33:25;98973.84;;;28.37
12430;BMP280;6279;42.192;24.326;2023-09-19T13:35:51;98969.06;;;28.34
12430;BMP280;6279;42.192;24.326;2023-09-19T13:38:17;98973.25;;;28.45
12430;BMP280;6279;42.192;24.326;2023-09-19T13:40:47;98976.47;;;28.42
12430;BMP280;6279;42.192;24.326;2023-09-19T13:43:13;98971.50;;;28.26
12430;BMP280;6279;42.192;24.326;2023-09-19T13:45:38;98972.03;;;27.90
12430;BMP280;6279;42.192;24.326;2023-09-19T13:48:07;98969.41;;;27.80
12430;BMP280;6279;42.192;24.326;2023-09-19T13:50:34;98968.91;;;27.78
12430;BMP280;6279;42.192;24.326;2023-09-19T13:53:01;98965.72;;;27.72
12430;BMP280;6279;42.192;24.326;2023-09-19T13:55:27;98964.72;;;27.58
12430;BMP280;6279;42.192;24.326;2023-09-19T13:57:53;98968.47;;;27.57
12430;BMP280;6279;42.192;24.326;2023-09-19T14:00:24;98963.69;;;27.54
12430;BMP280;6279;42.192;24.326;2023-09-19T14:02:49;98963.72;;;27.44
12430;BMP280;6279;42.192;24.326;2023-09-19T14:05:16;98956.53;;;27.35
12430;BMP280;6279;42.192;24.326;2023-09-19T14:07:42;98960.03;;;27.30
12430;BMP280;6279;42.192;24.326;2023-09-19T14:10:10;98945.09;;;27.15
12430;BMP280;6279;42.192;24.326;2023-09-19T14:12:36;98950.50;;;27.05
12430;BMP280;6279;42.192;24.326;2023-09-19T14:15:05;98949.44;;;27.01
12430;BMP280;6279;42.192;24.326;2023-09-19T14:17:32;98941.34;;;27.16
12430;BMP280;6279;42.192;24.326;2023-09-19T14:19:58;98941.84;;;27.32
12430;BMP280;6279;42.192;24.326;2023-09-19T14:22:23;98941.19;;;27.60
12430;BMP280;6279;42.192;24.326;2023-09-19T14:24:49;98947.88;;;27.57
12430;BMP280;6279;42.192;24.326;2023-09-19T14:27:14;98935.31;;;27.53
12430;BMP280;6279;42.192;24.326;2023-09-19T14:29:40;98942.50;;;27.62
12430;BMP280;6279;42.192;24.326;2023-09-19T14:32:06;98943.31;;;27.63
12430;BMP280;6279;42.192;24.326;2023-09-19T14:34:32;98948.16;;;27.56
12430;BMP280;6279;42.192;24.326;2023-09-19T14:36:58;98948.09;;;27.66
12430;BMP280;6279;42.192;24.326;2023-09-19T14:39:23;98943.25;;;27.73
12430;BMP280;6279;42.192;24.326;2023-09-19T14:41:49;98942.59;;;27.95
12430;BMP280;6279;42.192;24.326;2023-09-19T14:44:15;98942.34;;;28.24
12430;BMP280;6279;42.192;24.326;2023-09-19T14:46:43;98937.91;;;28.48
12430;BMP280;6279;42.192;24.326;2023-09-19T14:49:10;98938.28;;;28.32
12430;BMP280;6279;42.192;24.326;2023-09-19T14:51:38;98937.00;;;28.24
12430;BMP280;6279;42.192;24.326;2023-09-19T14:54:05;98946.09;;;28.23
12430;BMP280;6279;42.192;24.326;2023-09-19T14:56:32;98936.47;;;28.22
12430;BMP280;6279;42.192;24.326;2023-09-19T14:58:58;98939.66;;;28.24
12430;BMP280;6279;42.192;24.326;2023-09-19T15:01:23;98946.19;;;28.14
12430;BMP280;6279;42.192;24.326;2023-09-19T15:03:48;98940.66;;;28.00
12430;BMP280;6279;42.192;24.326;2023-09-19T15:06:15;98941.19;;;28.02
12430;BMP280;6279;42.192;24.326;2023-09-19T15:08:43;98940.59;;;28.10
12430;BMP280;6279;42.192;24.326;2023-09-19T15:11:15;98940.34;;;28.07
12430;BMP280;6279;42.192;24.326;2023-09-19T15:13:45;98946.34;;;27.94